createdAt,value
2022-08-25T00:01:51.012Z,101928.78
2022-08-25T00:04:21.298Z,101932.66
2022-08-25T00:06:49.295Z,101926.44
2022-08-25T00:09:18.918Z,101925.22
2022-08-25T00:11:47.151Z,101919.34
2022-08-25T00:14:18.373Z,101923.91
2022-08-25T00:16:45.486Z,101915.31
2022-08-25T00:19:16.914Z,101922.56
2022-08-25T00:21:45.323Z,101913.88
2022-08-25T00:24:15.000Z,101914.13
2022-08-25T00:26:43.917Z,101918.00
2022-08-25T00:29:11.545Z,101914.06
2022-08-25T00:31:39.339Z,101918.00
2022-08-25T00:34:12.262Z,101910.72
2022-08-25T00:36:39.473Z,101913.09
2022-08-25T00:39:08.173Z,101911.16
2022-08-25T00:41:36.742Z,101915.00
2022-08-25T00:44:06.349Z,101908.81
2022-08-25T00:46:38.586Z,101915.81
2022-08-25T00:49:14.675Z,101908.03
2022-08-25T00:51:56.614Z,101911.41
2022-08-25T00:54:28.444Z,101911.34
2022-08-25T00:56:56.821Z,101912.91
2022-08-25T00:59:26.521Z,101913.59
2022-08-25T01:01:54.172Z,101910.78
2022-08-25T01:04:21.107Z,101903.38
2022-08-25T01:06:48.965Z,101904.16
2022-08-25T01:09:17.217Z,101911.84
2022-08-25T01:11:44.991Z,101906.75
2022-08-25T01:14:15.257Z,101909.47
2022-08-25T01:16:43.920Z,101905.53
2022-08-25T01:19:15.417Z,101899.31
2022-08-25T01:21:48.746Z,101892.31
2022-08-25T01:24:31.465Z,101896.16
2022-08-25T01:26:58.678Z,101898.44
2022-08-25T01:29:25.767Z,101896.06
2022-08-25T01:32:01.342Z,101894.84
2022-08-25T01:34:31.965Z,101894.41
2022-08-25T01:37:00.280Z,101892.34
2022-08-25T01:39:29.524Z,101892.69
2022-08-25T01:42:11.623Z,101905.03
2022-08-25T01:44:41.780Z,101903.47
2022-08-25T01:47:09.004Z,101898.38
2022-08-25T01:49:35.995Z,101897.91
2022-08-25T01:52:11.614Z,101900.19
2022-08-25T01:54:39.065Z,101895.78
2022-08-25T01:57:06.201Z,101888.78
2022-08-25T01:59:32.988Z,101894.56
2022-08-25T02:02:00.139Z,101891.41
2022-08-25T02:04:32.075Z,101894.81
2022-08-25T02:07:00.957Z,101898.22
2022-08-25T02:09:29.988Z,101889.97
2022-08-25T02:11:56.913Z,101886.47
2022-08-25T02:14:24.128Z,101886.81
2022-08-25T02:16:53.240Z,101887.94
2022-08-25T02:19:21.115Z,101885.13
2022-08-25T02:21:48.588Z,101891.69
2022-08-25T02:24:15.744Z,101890.78
2022-08-25T02:26:42.331Z,101892.72
2022-08-25T02:29:10.358Z,101894.66
2022-08-25T02:31:37.951Z,101886.41
2022-08-25T02:34:05.446Z,101885.16
2022-08-25T02:36:32.439Z,101885.94
2022-08-25T02:38:59.636Z,101887.53
2022-08-25T02:41:31.347Z,101888.66
2022-08-25T02:43:59.463Z,101880.88
2022-08-25T02:46:26.324Z,101873.88
2022-08-25T02:48:53.347Z,101877.38
2022-08-25T02:51:23.223Z,101872.28
2022-08-25T02:53:50.381Z,101873.78
2022-08-25T02:56:18.719Z,101877.25
2022-08-25T02:58:46.143Z,101876.03
2022-08-25T03:01:13.406Z,101873.31
2022-08-25T03:03:42.175Z,101867.47
2022-08-25T03:06:12.605Z,101870.94
2022-08-25T03:08:40.151Z,101870.16
2022-08-25T03:11:06.982Z,101867.78
2022-08-25T03:13:33.909Z,101862.03
2022-08-25T03:16:01.306Z,101850.41
2022-08-25T03:18:30.527Z,101846.94
2022-08-25T03:20:57.512Z,101855.06
2022-08-25T03:23:24.829Z,101846.47
2022-08-25T03:26:12.224Z,101848.38
2022-08-25T03:28:39.198Z,101852.22
2022-08-25T03:31:06.144Z,101846.38
2022-08-25T03:33:32.800Z,101845.22
2022-08-25T03:35:59.764Z,101844.78
2022-08-25T03:38:26.818Z,101837.91
2022-08-25T03:40:54.362Z,101840.63
2022-08-25T03:43:21.560Z,101831.22
2022-08-25T03:45:48.540Z,101837.78
2022-08-25T03:48:16.827Z,101828.06
2022-08-25T03:50:52.078Z,101831.47
2022-08-25T03:53:20.549Z,101832.25
2022-08-25T03:55:47.722Z,101823.34
2022-08-25T03:58:14.776Z,101824.38
2022-08-25T04:00:42.231Z,101821.22
2022-08-25T04:03:09.070Z,101828.13
2022-08-25T04:05:35.877Z,101825.59
2022-08-25T04:08:02.842Z,101825.41
2022-08-25T04:10:30.285Z,101822.47
2022-08-25T04:12:57.265Z,101815.81
2022-08-25T04:15:28.491Z,101816.16
2022-08-25T04:17:59.207Z,101817.28
2022-08-25T04:20:26.020Z,101813.69
2022-08-25T04:22:52.678Z,101810.09
2022-08-25T04:25:19.387Z,101801.84
2022-08-25T04:27:45.946Z,101806.47
2022-08-25T04:30:13.277Z,101806.34
2022-08-25T04:32:39.810Z,101807.06
2022-08-25T04:35:07.527Z,101801.19
2022-08-25T04:37:34.427Z,101795.78
2022-08-25T04:40:01.447Z,101800.28
2022-08-25T04:42:28.386Z,101806.81
2022-08-25T04:44:54.902Z,101800.16
2022-08-25T04:47:22.204Z,101798.25
2022-08-25T04:49:48.985Z,101801.63
2022-08-25T04:52:15.818Z,101804.22
2022-08-25T04:54:43.896Z,101807.63
2022-08-25T04:57:11.080Z,101803.00
2022-08-25T04:59:37.706Z,101804.91
2022-08-25T05:02:06.600Z,101804.09
2022-08-25T05:04:36.261Z,101806.03
2022-08-25T05:07:04.272Z,101803.00
2022-08-25T05:09:32.593Z,101804.56
2022-08-25T05:12:01.313Z,101803.44
2022-08-25T05:14:28.732Z,101798.81
2022-08-25T05:16:56.582Z,101799.59
2022-08-25T05:19:24.601Z,101800.81
2022-08-25T05:21:51.680Z,101811.31
2022-08-25T05:24:18.905Z,101811.78
2022-08-25T05:26:46.009Z,101818.09
2022-08-25T05:29:13.079Z,101813.91
2022-08-25T05:31:49.561Z,101817.88
2022-08-25T05:34:18.857Z,101815.97
2022-08-25T05:36:46.179Z,101823.75
2022-08-25T05:39:13.288Z,101825.75
2022-08-25T05:41:39.949Z,101830.50
2022-08-25T05:44:06.917Z,101827.09
2022-08-25T05:46:33.893Z,101830.72
2022-08-25T05:49:00.523Z,101829.81
2022-08-25T05:51:27.119Z,101832.06
2022-08-25T05:53:54.136Z,101833.88
2022-08-25T05:56:21.513Z,101834.84
2022-08-25T05:58:48.642Z,101829.31
2022-08-25T06:01:45.756Z,101831.88
2022-08-25T06:04:13.575Z,101829.03
2022-08-25T06:06:41.044Z,101830.47
2022-08-25T06:09:09.521Z,101829.53
2022-08-25T06:11:39.747Z,101832.88
2022-08-25T06:14:07.637Z,101834.22
2022-08-25T06:16:34.457Z,101833.59
2022-08-25T06:19:01.308Z,101831.81
2022-08-25T06:21:29.279Z,101843.19
2022-08-25T06:23:56.209Z,101840.59
2022-08-25T06:26:23.475Z,101834.44
2022-08-25T06:28:52.206Z,101838.75
2022-08-25T06:31:22.621Z,101841.09
2022-08-25T06:33:50.154Z,101839.19
2022-08-25T06:36:17.134Z,101843.13
2022-08-25T06:38:43.781Z,101843.91
2022-08-25T06:41:14.007Z,101838.16
2022-08-25T06:43:48.065Z,101841.28
2022-08-25T06:46:21.614Z,101842.53
2022-08-25T06:48:49.256Z,101838.41
2022-08-25T06:51:17.937Z,101835.09
2022-08-25T06:53:48.955Z,101831.41
2022-08-25T06:56:20.013Z,101831.22
2022-08-25T06:58:48.166Z,101827.53
2022-08-25T07:01:23.525Z,101831.22
2022-08-25T07:03:57.805Z,101831.84
2022-08-25T07:06:26.696Z,101830.09
2022-08-25T07:08:54.185Z,101822.91
2022-08-25T07:11:21.556Z,101823.81
2022-08-25T07:13:49.110Z,101830.19
2022-08-25T07:16:16.757Z,101835.00
2022-08-25T07:18:44.676Z,101826.59
2022-08-25T07:21:12.820Z,101832.16
2022-08-25T07:23:41.188Z,101838.09
2022-08-25T07:29:16.768Z,101841.56
2022-08-25T07:31:44.464Z,101847.16
2022-08-25T07:34:30.107Z,101838.34
2022-08-25T07:36:57.751Z,101830.34
2022-08-25T07:39:26.465Z,101832.41
2022-08-25T07:41:53.744Z,101840.63
2022-08-25T07:44:24.562Z,101837.59
2022-08-25T07:46:54.969Z,101840.03
2022-08-25T07:49:23.831Z,101840.09
2022-08-25T07:52:04.643Z,101830.88
2022-08-25T07:54:34.055Z,101831.34
2022-08-25T07:57:30.010Z,101834.19
2022-08-25T07:59:57.005Z,101830.41
2022-08-25T08:02:24.831Z,101825.81
2022-08-25T08:04:53.532Z,101834.47
2022-08-25T08:07:23.796Z,101826.78
2022-08-25T08:12:56.970Z,101832.44
2022-08-25T08:15:23.947Z,101816.59
2022-08-25T08:17:52.591Z,101817.50
2022-08-25T08:20:23.380Z,101817.59
2022-08-25T08:22:50.516Z,101819.63
2022-08-25T08:25:21.316Z,101817.03
2022-08-25T08:27:50.991Z,101812.09
2022-08-25T08:30:21.807Z,101814.91
2022-08-25T08:33:09.299Z,101819.66
2022-08-25T08:35:37.230Z,101814.31
2022-08-25T08:38:13.505Z,101814.38
2022-08-25T08:41:15.264Z,101812.91
2022-08-25T08:43:43.726Z,101802.88
2022-08-25T08:46:10.644Z,101803.75
2022-08-25T08:48:43.135Z,101804.19
2022-08-25T08:51:33.496Z,101795.72
2022-08-25T08:54:14.910Z,101798.56
2022-08-25T08:56:48.229Z,101797.50
2022-08-25T08:59:22.531Z,101797.56
2022-08-25T09:02:02.889Z,101793.69
2022-08-25T09:04:40.411Z,101794.56
2022-08-25T09:07:13.100Z,101795.38
2022-08-25T09:09:42.463Z,101787.63
2022-08-25T09:12:31.626Z,101799.00
2022-08-25T09:15:18.698Z,101792.81
2022-08-25T09:18:13.906Z,101787.47
2022-08-25T09:21:03.142Z,101786.72
2022-08-25T09:23:44.676Z,101788.75
2022-08-25T09:26:11.835Z,101789.97
2022-08-25T09:28:51.360Z,101796.28
2022-08-25T09:31:31.975Z,101788.13
2022-08-25T09:34:02.586Z,101790.88
2022-08-25T09:36:33.242Z,101786.25
2022-08-25T09:39:04.249Z,101787.88
2022-08-25T09:41:56.879Z,101786.00
2022-08-25T09:44:31.410Z,101782.88
2022-08-25T09:47:08.154Z,101775.88
2022-08-25T09:49:40.160Z,101777.06
2022-08-25T09:52:26.214Z,101777.50
2022-08-25T09:54:56.018Z,101769.31
2022-08-25T09:57:43.804Z,101770.91
2022-08-25T10:00:24.195Z,101757.66
2022-08-25T10:03:22.882Z,101752.97
2022-08-25T10:06:14.903Z,101756.94
2022-08-25T10:08:56.363Z,101755.00
2022-08-25T10:11:40.068Z,101759.31
2022-08-25T10:14:28.482Z,101753.44
2022-08-25T10:17:16.353Z,101742.88
2022-08-25T10:19:44.137Z,101749.16
2022-08-25T10:22:21.731Z,101740.16
2022-08-25T10:24:49.429Z,101732.72
2022-08-25T10:27:40.032Z,101731.19
2022-08-25T10:30:23.759Z,101735.06
2022-08-25T10:33:09.090Z,101728.00
2022-08-25T10:35:41.865Z,101725.28
2022-08-25T10:38:23.499Z,101713.50
2022-08-25T10:41:02.685Z,101715.06
2022-08-25T10:43:51.170Z,101710.31
2022-08-25T10:46:27.830Z,101706.38
2022-08-25T10:49:08.670Z,101704.41
2022-08-25T10:51:45.995Z,101702.81
2022-08-25T10:54:17.607Z,101689.44
2022-08-25T10:57:01.981Z,101690.94
2022-08-25T11:00:08.237Z,101676.84
2022-08-25T11:02:47.695Z,101679.91
2022-08-25T11:05:33.282Z,101681.03
2022-08-25T11:08:06.439Z,101683.75
2022-08-25T11:10:44.613Z,101676.28
2022-08-25T11:13:48.738Z,101675.47
2022-08-25T11:16:20.502Z,101676.22
2022-08-25T11:19:05.567Z,101667.94
2022-08-25T11:21:48.259Z,101676.50
2022-08-25T11:24:23.139Z,101666.28
2022-08-25T11:26:55.818Z,101659.97
2022-08-25T11:29:27.196Z,101664.28
2022-08-25T11:31:54.746Z,101661.06
2022-08-25T11:34:23.290Z,101651.22
2022-08-25T11:37:00.064Z,101656.34
2022-08-25T11:39:36.248Z,101655.47
2022-08-25T11:42:34.125Z,101649.50
2022-08-25T11:45:38.743Z,101642.34
2022-08-25T11:48:22.073Z,101634.78
2022-08-25T11:51:04.775Z,101634.31
2022-08-25T11:53:34.971Z,101636.19
2022-08-25T11:56:33.086Z,101634.47
2022-08-25T11:59:01.317Z,101634.84
2022-08-25T12:01:48.118Z,101635.53
2022-08-25T12:04:45.134Z,101633.84
2022-08-25T12:07:25.915Z,101637.75
2022-08-25T12:09:53.815Z,101639.59
2022-08-25T12:12:37.278Z,101635.25
2022-08-25T12:15:27.096Z,101626.22
2022-08-25T12:18:13.019Z,101634.88
2022-08-25T12:20:57.658Z,101630.53
2022-08-25T12:23:44.960Z,101631.34
2022-08-25T12:26:20.822Z,101634.09
2022-08-25T12:29:01.221Z,101632.56
2022-08-25T12:32:04.514Z,101626.75
2022-08-25T12:34:52.013Z,101630.66
2022-08-25T12:37:22.269Z,101625.13
2022-08-25T12:39:48.931Z,101618.44
2022-08-25T12:42:36.206Z,101616.81
2022-08-25T12:45:25.712Z,101613.22
2022-08-25T12:47:54.824Z,101615.91
2022-08-25T12:50:27.580Z,101622.50
2022-08-25T12:53:03.222Z,101613.81
2022-08-25T12:55:30.289Z,101614.13
2022-08-25T12:57:59.049Z,101616.75
2022-08-25T13:00:37.700Z,101614.31
2022-08-25T13:03:10.933Z,101606.38
2022-08-25T13:06:20.097Z,101614.47
2022-08-25T13:08:56.311Z,101603.06
2022-08-25T13:11:46.872Z,101611.19
2022-08-25T13:14:26.949Z,101601.69
2022-08-25T13:16:55.680Z,101590.97
2022-08-25T13:19:23.739Z,101598.81
2022-08-25T13:21:51.514Z,101589.34
2022-08-25T13:24:24.448Z,101584.22
2022-08-25T13:26:55.541Z,101583.03
2022-08-25T13:29:27.890Z,101577.53
2022-08-25T13:32:09.272Z,101584.13
2022-08-25T13:34:42.893Z,101579.31
2022-08-25T13:37:31.221Z,101576.50
2022-08-25T13:40:24.812Z,101572.47
2022-08-25T13:43:01.258Z,101577.13
2022-08-25T13:45:40.180Z,101571.97
2022-08-25T13:48:23.001Z,101578.69
2022-08-25T13:50:53.297Z,101570.44
2022-08-25T13:53:26.292Z,101568.81
2022-08-25T13:55:58.479Z,101561.69
2022-08-25T13:58:45.137Z,101562.81
2022-08-25T14:01:48.971Z,101557.66
2022-08-25T14:04:21.736Z,101559.28
2022-08-25T14:06:49.688Z,101558.09
2022-08-25T14:09:28.213Z,101551.00
2022-08-25T14:11:59.697Z,101556.16
2022-08-25T14:14:26.658Z,101546.28
2022-08-25T14:17:21.598Z,101547.50
2022-08-25T14:19:55.746Z,101548.19
2022-08-25T14:22:22.928Z,101548.97
2022-08-25T14:24:52.708Z,101535.97
2022-08-25T14:27:19.700Z,101539.94
2022-08-25T14:29:50.942Z,101534.44
2022-08-25T14:32:21.770Z,101539.16
2022-08-25T14:34:48.662Z,101531.69
2022-08-25T14:37:19.523Z,101540.72
2022-08-25T14:39:49.379Z,101530.41
2022-08-25T14:42:16.822Z,101531.16
2022-08-25T14:44:44.360Z,101530.34
2022-08-25T14:47:11.148Z,101536.25
2022-08-25T14:49:43.975Z,101529.56
2022-08-25T14:52:19.331Z,101530.69
2022-08-25T14:54:49.413Z,101523.19
2022-08-25T14:57:16.425Z,101518.91
2022-08-25T14:59:43.494Z,101521.22
2022-08-25T15:02:14.412Z,101521.91
2022-08-25T15:04:49.110Z,101515.63
2022-08-25T15:07:36.096Z,101520.78
2022-08-25T15:10:09.863Z,101520.03
2022-08-25T15:12:47.229Z,101517.19
2022-08-25T15:15:16.030Z,101515.63
2022-08-25T15:17:45.461Z,101514.56
2022-08-25T15:20:12.931Z,101511.53
2022-08-25T15:22:44.639Z,101510.94
2022-08-25T15:25:12.238Z,101510.69
2022-08-25T15:27:38.956Z,101512.50
2022-08-25T15:30:06.189Z,101504.34
2022-08-25T15:32:33.229Z,101499.75
2022-08-25T15:35:03.434Z,101506.16
2022-08-25T15:37:31.492Z,101508.63
2022-08-25T15:39:59.087Z,101501.69
2022-08-25T15:42:26.903Z,101502.59
2022-08-25T15:44:54.709Z,101503.84
2022-08-25T15:47:26.874Z,101502.78
2022-08-25T15:50:07.390Z,101498.56
2022-08-25T15:52:44.596Z,101491.97
2022-08-25T15:55:14.887Z,101492.78
2022-08-25T15:57:42.253Z,101488.88
2022-08-25T16:00:12.110Z,101490.88
2022-08-25T16:02:40.613Z,101491.28
2022-08-25T16:05:09.640Z,101488.59
2022-08-25T16:07:37.742Z,101494.09
2022-08-25T16:10:05.845Z,101490.56
2022-08-25T16:12:32.569Z,101489.00
2022-08-25T16:14:59.199Z,101489.00
2022-08-25T16:17:27.392Z,101487.47
2022-08-25T16:19:54.203Z,101481.19
2022-08-25T16:22:20.911Z,101481.19
2022-08-25T16:24:48.016Z,101483.94
2022-08-25T16:27:15.277Z,101482.38
2022-08-25T16:29:44.007Z,101484.72
2022-08-25T16:32:13.454Z,101476.47
2022-08-25T16:34:41.440Z,101473.72
2022-08-25T16:37:08.678Z,101470.19
2022-08-25T16:39:36.668Z,101476.88
2022-08-25T16:42:06.774Z,101476.09
2022-08-25T16:44:34.582Z,101476.59
2022-08-25T16:47:01.727Z,101473.13
2022-08-25T16:49:28.451Z,101470.41
2022-08-25T16:51:57.027Z,101467.66
2022-08-25T16:54:42.921Z,101466.91
2022-08-25T16:57:09.806Z,101471.59
2022-08-25T16:59:36.461Z,101467.31
2022-08-25T17:02:04.003Z,101466.53
2022-08-25T17:04:32.594Z,101476.75
2022-08-25T17:06:59.558Z,101470.88
2022-08-25T17:09:26.238Z,101481.94
2022-08-25T17:11:56.820Z,101480.03
2022-08-25T17:14:24.366Z,101487.94
2022-08-25T17:16:54.813Z,101484.97
2022-08-25T17:19:23.784Z,101483.44
2022-08-25T17:21:51.375Z,101485.09
2022-08-25T17:24:20.998Z,101482.03
2022-08-25T17:26:51.071Z,101489.16
2022-08-25T17:29:19.772Z,101496.78
2022-08-25T17:31:48.399Z,101483.94
2022-08-25T17:34:16.880Z,101489.59
2022-08-25T17:36:50.852Z,101496.88
2022-08-25T17:39:19.619Z,101490.78
2022-08-25T17:41:48.806Z,101498.66
2022-08-25T17:44:17.715Z,101495.19
2022-08-25T17:46:47.405Z,101495.69
2022-08-25T17:49:15.457Z,101501.63
2022-08-25T17:51:42.738Z,101497.09
2022-08-25T17:54:09.447Z,101499.09
2022-08-25T17:56:36.818Z,101502.72
2022-08-25T17:59:03.514Z,101493.44
2022-08-25T18:05:21.707Z,101499.34
2022-08-25T18:07:48.363Z,101501.38
2022-08-25T18:10:16.583Z,101500.28
2022-08-25T18:12:43.703Z,101505.81
2022-08-25T18:15:12.401Z,101503.50
2022-08-25T18:17:41.155Z,101507.47
2022-08-25T18:20:11.231Z,101512.53
2022-08-25T18:22:38.736Z,101518.03
2022-08-25T18:25:07.499Z,101516.47
2022-08-25T18:27:34.939Z,101512.59
2022-08-25T18:30:02.088Z,101509.13
2022-08-25T18:32:33.712Z,101516.94
2022-08-25T18:35:00.602Z,101517.38
2022-08-25T18:37:46.007Z,101519.75
2022-08-25T18:40:25.727Z,101511.13
2022-08-25T18:42:58.935Z,101524.41
2022-08-25T18:45:32.189Z,101525.97
2022-08-25T18:48:00.984Z,101524.41
2022-08-25T18:50:32.358Z,101523.66
2022-08-25T18:53:00.429Z,101535.75
2022-08-25T18:55:27.997Z,101543.56
2022-08-25T18:57:55.979Z,101546.63
2022-08-25T19:00:25.560Z,101536.06
2022-08-25T19:02:56.063Z,101543.09
2022-08-25T19:05:34.189Z,101545.41
2022-08-25T19:08:03.032Z,101551.25
2022-08-25T19:10:30.434Z,101559.03
2022-08-25T19:12:58.258Z,101553.53
2022-08-25T19:15:30.521Z,101564.41
2022-08-25T19:17:58.854Z,101567.88
2022-08-25T19:20:26.296Z,101581.03
2022-08-25T19:22:52.990Z,101577.06
2022-08-25T19:25:21.841Z,101582.47
2022-08-25T19:27:49.587Z,101573.00
2022-08-25T19:30:18.141Z,101587.28
2022-08-25T19:32:47.725Z,101589.16
2022-08-25T19:35:31.853Z,101580.53
2022-08-25T19:38:00.664Z,101587.84
2022-08-25T19:40:29.472Z,101591.63
2022-08-25T19:42:56.397Z,101582.16
2022-08-25T19:45:24.634Z,101591.03
2022-08-25T19:47:51.810Z,101592.91
2022-08-25T19:50:20.864Z,101608.34
2022-08-25T19:52:49.957Z,101605.13
2022-08-25T19:55:19.313Z,101618.59
2022-08-25T19:57:46.841Z,101621.25
2022-08-25T20:00:20.651Z,101621.06
2022-08-25T20:02:47.582Z,101627.63
2022-08-25T20:05:16.999Z,101622.03
2022-08-25T20:07:52.665Z,101619.16
2022-08-25T20:10:20.358Z,101623.41
2022-08-25T20:12:47.434Z,101621.66
2022-08-25T20:15:16.733Z,101616.50
2022-08-25T20:17:43.482Z,101634.28
2022-08-25T20:20:15.396Z,101634.03
2022-08-25T20:22:42.527Z,101639.47
2022-08-25T20:25:13.756Z,101651.78
2022-08-25T20:27:43.946Z,101643.06
2022-08-25T20:30:16.749Z,101646.84
2022-08-25T20:32:44.347Z,101641.06
2022-08-25T20:35:16.623Z,101639.88
2022-08-25T20:37:45.449Z,101644.75
2022-08-25T20:40:14.787Z,101647.97
2022-08-25T20:42:43.615Z,101648.69
2022-08-25T20:45:14.109Z,101661.00
2022-08-25T20:47:40.977Z,101659.72
2022-08-25T20:50:09.227Z,101663.00
2022-08-25T20:52:42.475Z,101667.88
2022-08-25T20:55:11.137Z,101668.34
2022-08-25T20:57:39.343Z,101662.69
2022-08-25T21:00:09.248Z,101666.13
2022-08-25T21:02:36.502Z,101664.88
2022-08-25T21:05:04.684Z,101663.16
2022-08-25T21:07:31.500Z,101675.44
2022-08-25T21:10:05.365Z,101678.06
2022-08-25T21:12:32.226Z,101675.91
2022-08-25T21:14:58.928Z,101670.38
2022-08-25T21:17:26.190Z,101681.41
2022-08-25T21:19:52.734Z,101684.13
2022-08-25T21:22:19.444Z,101683.78
2022-08-25T21:24:47.460Z,101681.06
2022-08-25T21:27:14.513Z,101686.56
2022-08-25T21:29:44.422Z,101687.16
2022-08-25T21:32:11.672Z,101695.88
2022-08-25T21:34:38.376Z,101699.22
2022-08-25T21:37:05.404Z,101701.66
2022-08-25T21:39:33.124Z,101708.78
2022-08-25T21:42:00.662Z,101705.75
2022-08-25T21:44:28.876Z,101703.38
2022-08-25T21:46:56.142Z,101711.31
2022-08-25T21:49:24.157Z,101709.72
2022-08-25T21:52:00.418Z,101710.53
2022-08-25T21:54:28.768Z,101716.09
2022-08-25T21:56:59.880Z,101714.78
2022-08-25T21:59:30.534Z,101720.75
2022-08-25T22:01:59.947Z,101719.53
2022-08-25T22:04:27.917Z,101714.25
2022-08-25T22:06:55.045Z,101711.88
2022-08-25T22:09:24.703Z,101712.91
2022-08-25T22:11:52.841Z,101716.22
2022-08-25T22:14:23.412Z,101715.44
2022-08-25T22:16:52.058Z,101712.03
2022-08-25T22:19:18.792Z,101723.63
2022-08-25T22:21:50.381Z,101719.69
2022-08-25T22:24:18.171Z,101713.38
2022-08-25T22:26:47.485Z,101711.81
2022-08-25T22:29:23.251Z,101712.50
2022-08-25T22:31:54.129Z,101718.94
2022-08-25T22:34:30.742Z,101715.91
2022-08-25T22:36:59.747Z,101711.16
2022-08-25T22:39:27.344Z,101709.94
2022-08-25T22:41:53.999Z,101708.59
2022-08-25T22:44:23.165Z,101710.16
2022-08-25T22:46:49.907Z,101721.41
2022-08-25T22:49:17.267Z,101722.22
2022-08-25T22:51:44.366Z,101723.34
2022-08-25T22:54:15.231Z,101724.50
2022-08-25T22:56:42.299Z,101728.19
2022-08-25T22:59:10.939Z,101729.00
2022-08-25T23:01:37.619Z,101733.97
2022-08-25T23:04:07.154Z,101729.00
2022-08-25T23:06:36.612Z,101730.91
2022-08-25T23:09:06.203Z,101733.63
2022-08-25T23:11:32.957Z,101729.34
2022-08-25T23:14:05.459Z,101733.53
2022-08-25T23:16:33.212Z,101737.00
2022-08-25T23:19:00.631Z,101738.47
2022-08-25T23:21:46.449Z,101738.38
2022-08-25T23:24:26.835Z,101741.31
2022-08-25T23:26:58.466Z,101742.44
2022-08-25T23:29:25.261Z,101743.44
2022-08-25T23:31:52.168Z,101745.72
2022-08-25T23:34:23.205Z,101744.56
2022-08-25T23:36:50.504Z,101747.63
2022-08-25T23:39:17.063Z,101744.94
2022-08-25T23:41:43.641Z,101745.47
2022-08-25T23:44:11.658Z,101743.56
2022-08-25T23:46:44.497Z,101748.53
2022-08-25T23:49:11.094Z,101737.72
2022-08-25T23:51:38.005Z,101742.75
2022-08-25T23:54:09.267Z,101740.41
2022-08-25T23:56:44.526Z,101746.59
2022-08-25T23:59:13.099Z,101742.63
